createdAt,value
2019-04-10T00:00:37.340Z,30.60
2019-04-10T00:01:51.008Z,32.73
2019-04-10T00:03:04.171Z,35.68
2019-04-10T00:04:17.205Z,31.70
2019-04-10T00:05:31.912Z,34.73
2019-04-10T00:06:45.862Z,34.45
2019-04-10T00:07:58.950Z,33.23
2019-04-10T00:09:15.041Z,35.98
2019-04-10T00:10:28.552Z,33.10
2019-04-10T00:11:41.614Z,35.60
2019-04-10T00:12:56.137Z,33.58
2019-04-10T00:14:10.276Z,36.53
2019-04-10T00:15:24.256Z,33.67
2019-04-10T00:16:38.693Z,34.08
2019-04-10T00:17:53.520Z,36.10
2019-04-10T00:19:07.153Z,35.38
2019-04-10T00:20:20.467Z,39.42
2019-04-10T00:21:33.559Z,35.92
2019-04-10T00:22:46.613Z,34.35
2019-04-10T00:24:01.900Z,36.55
2019-04-10T00:25:14.985Z,36.95
2019-04-10T00:26:28.045Z,36.50
2019-04-10T00:27:41.090Z,35.78
2019-04-10T00:28:54.069Z,35.70
2019-04-10T00:30:07.057Z,32.60
2019-04-10T00:31:20.070Z,34.05
2019-04-10T00:32:34.131Z,29.40
2019-04-10T00:33:47.741Z,28.85
2019-04-10T00:35:00.728Z,26.90
2019-04-10T00:36:14.187Z,29.27
2019-04-10T00:37:31.012Z,30.10
2019-04-10T00:38:42.090Z,32.35
2019-04-10T00:39:57.075Z,30.70
2019-04-10T00:41:10.228Z,31.62
2019-04-10T00:42:23.200Z,30.45
2019-04-10T00:43:37.134Z,31.42
2019-04-10T00:44:50.502Z,33.45
2019-04-10T00:46:04.058Z,31.07
2019-04-10T00:47:17.197Z,31.42
2019-04-10T00:48:30.437Z,32.80
2019-04-10T00:49:44.097Z,29.63
2019-04-10T00:50:57.179Z,31.15
2019-04-10T00:52:10.242Z,30.05
2019-04-10T00:53:23.333Z,33.45
2019-04-10T00:54:37.233Z,28.98
2019-04-10T00:55:52.311Z,32.50
2019-04-10T00:57:05.345Z,31.12
2019-04-10T00:58:18.360Z,29.27
2019-04-10T00:59:32.381Z,31.07
2019-04-10T01:00:45.517Z,31.62
2019-04-10T01:01:58.505Z,30.52
2019-04-10T01:03:13.631Z,32.20
2019-04-10T01:04:26.640Z,29.55
2019-04-10T01:05:39.687Z,30.85
2019-04-10T01:06:52.716Z,28.70
2019-04-10T01:08:06.631Z,29.60
2019-04-10T01:09:21.444Z,33.85
2019-04-10T01:10:34.852Z,28.75
2019-04-10T01:11:47.862Z,29.55
2019-04-10T01:13:00.880Z,32.98
2019-04-10T01:14:13.878Z,32.88
2019-04-10T01:15:28.816Z,30.27
2019-04-10T01:16:43.987Z,30.85
2019-04-10T01:17:57.082Z,34.35
2019-04-10T01:19:10.082Z,30.92
2019-04-10T01:20:23.802Z,28.30
2019-04-10T01:21:36.886Z,30.25
2019-04-10T01:22:49.886Z,31.23
2019-04-10T01:24:03.626Z,35.88
2019-04-10T01:25:17.206Z,31.42
2019-04-10T01:26:30.213Z,29.60
2019-04-10T01:27:44.471Z,30.75
2019-04-10T01:28:57.887Z,30.12
2019-04-10T01:30:10.897Z,32.75
2019-04-10T01:31:24.913Z,31.23
2019-04-10T01:32:37.920Z,30.35
2019-04-10T01:33:50.937Z,30.30
2019-04-10T01:35:05.703Z,27.82
2019-04-10T01:36:19.313Z,28.73
2019-04-10T01:37:40.197Z,24.10
2019-04-10T01:38:47.060Z,26.52
2019-04-10T01:40:00.068Z,21.97
2019-04-10T01:41:13.091Z,22.98
2019-04-10T01:42:26.094Z,23.32
2019-04-10T01:43:39.231Z,23.25
2019-04-10T01:44:53.598Z,25.95
2019-04-10T01:46:06.593Z,23.73
2019-04-10T01:47:19.606Z,21.68
2019-04-10T01:48:34.542Z,24.87
2019-04-10T01:49:48.290Z,24.63
2019-04-10T01:51:01.404Z,25.30
2019-04-10T01:52:15.090Z,25.43
2019-04-10T01:53:28.190Z,26.00
2019-04-10T01:54:43.956Z,23.42
2019-04-10T01:55:57.595Z,22.10
2019-04-10T01:57:10.705Z,24.82
2019-04-10T01:58:23.783Z,26.12
2019-04-10T01:59:40.380Z,27.82
2019-04-10T02:01:03.955Z,26.40
2019-04-10T02:02:18.606Z,23.60
2019-04-10T02:03:34.094Z,27.20
2019-04-10T02:04:51.305Z,26.97
2019-04-10T02:06:05.196Z,28.60
2019-04-10T02:07:20.202Z,27.85
2019-04-10T02:08:34.099Z,27.05
2019-04-10T02:09:47.731Z,29.95
2019-04-10T02:11:00.756Z,29.65
2019-04-10T02:12:15.053Z,25.15
2019-04-10T02:13:28.071Z,28.35
2019-04-10T02:14:41.083Z,29.55
2019-04-10T02:15:54.483Z,29.52
2019-04-10T02:17:08.445Z,30.30
2019-04-10T02:18:23.501Z,30.82
2019-04-10T02:19:36.669Z,29.72
2019-04-10T02:20:49.667Z,29.20
2019-04-10T02:22:02.655Z,29.05
2019-04-10T02:23:16.258Z,31.33
2019-04-10T02:24:29.408Z,29.23
2019-04-10T02:25:43.187Z,31.15
2019-04-10T02:26:56.248Z,29.72
2019-04-10T02:28:09.307Z,28.67
2019-04-10T02:29:22.353Z,27.73
2019-04-10T02:30:37.285Z,29.85
2019-04-10T02:31:52.644Z,27.45
2019-04-10T02:33:06.154Z,31.40
2019-04-10T02:34:19.854Z,32.65
2019-04-10T02:35:36.023Z,31.23
2019-04-10T02:36:50.661Z,30.62
2019-04-10T02:38:22.995Z,29.00
2019-04-10T02:39:27.558Z,31.62
2019-04-10T02:40:35.355Z,33.00
2019-04-10T02:41:50.043Z,31.45
2019-04-10T02:43:03.390Z,34.35
2019-04-10T02:44:18.519Z,32.08
2019-04-10T02:45:32.584Z,35.05
2019-04-10T02:46:47.161Z,31.52
2019-04-10T02:48:01.633Z,34.95
2019-04-10T02:49:16.337Z,35.85
2019-04-10T02:50:29.985Z,34.25
2019-04-10T02:51:45.368Z,32.15
2019-04-10T02:52:59.226Z,32.83
2019-04-10T02:54:13.690Z,30.88
2019-04-10T02:55:29.120Z,35.73
2019-04-10T02:56:43.406Z,29.48
2019-04-10T02:57:58.788Z,29.75
2019-04-10T02:59:15.504Z,29.23
2019-04-10T03:00:30.439Z,30.20
2019-04-10T03:01:44.028Z,31.40
2019-04-10T03:02:59.290Z,31.68
2019-04-10T03:04:13.751Z,31.02
2019-04-10T03:05:27.471Z,34.53
2019-04-10T03:06:40.667Z,34.78
2019-04-10T03:07:55.837Z,32.88
2019-04-10T03:09:26.067Z,35.38
2019-04-10T03:10:31.389Z,35.60
2019-04-10T03:11:39.619Z,37.30
2019-04-10T03:12:54.344Z,37.93
2019-04-10T03:14:08.045Z,35.55
2019-04-10T03:15:23.106Z,36.85
2019-04-10T03:16:36.289Z,38.08
2019-04-10T03:17:51.075Z,35.05
2019-04-10T03:19:04.119Z,35.70
2019-04-10T03:20:18.308Z,34.92
2019-04-10T03:21:31.759Z,37.45
2019-04-10T03:22:45.174Z,38.30
2019-04-10T03:23:58.428Z,38.83
2019-04-10T03:25:12.879Z,38.75
2019-04-10T03:26:25.942Z,36.68
2019-04-10T03:27:39.230Z,35.40
2019-04-10T03:28:53.460Z,41.35
2019-04-10T03:30:07.776Z,39.30
2019-04-10T03:31:23.036Z,35.92
2019-04-10T03:32:41.622Z,38.23
2019-04-10T03:34:06.093Z,40.60
2019-04-10T03:35:26.990Z,38.67
2019-04-10T03:36:44.119Z,44.45
2019-04-10T03:37:57.390Z,42.00
2019-04-10T03:39:13.306Z,38.58
2019-04-10T03:40:27.127Z,35.75
2019-04-10T03:41:40.318Z,36.25
2019-04-10T03:42:53.393Z,37.25
2019-04-10T03:44:06.443Z,39.13
2019-04-10T03:45:22.334Z,37.00
2019-04-10T03:46:38.705Z,36.88
2019-04-10T03:47:51.735Z,39.53
2019-04-10T03:49:05.329Z,36.30
2019-04-10T03:50:18.513Z,35.52
2019-04-10T03:51:33.184Z,36.73
2019-04-10T03:52:46.423Z,39.23
2019-04-10T03:53:59.571Z,37.15
2019-04-10T03:55:12.651Z,35.88
2019-04-10T03:56:26.057Z,37.30
2019-04-10T03:57:40.787Z,31.95
2019-04-10T03:58:55.782Z,39.38
2019-04-10T04:00:09.844Z,35.65
2019-04-10T04:01:25.077Z,39.53
2019-04-10T04:02:38.165Z,38.85
2019-04-10T04:03:53.368Z,36.28
2019-04-10T04:05:08.817Z,37.05
2019-04-10T04:06:21.871Z,36.03
2019-04-10T04:07:34.927Z,34.53
2019-04-10T04:08:59.754Z,37.28
2019-04-10T04:10:03.118Z,39.80
2019-04-10T04:11:16.165Z,36.85
2019-04-10T04:12:31.246Z,36.33
2019-04-10T04:13:44.293Z,40.15
2019-04-10T04:14:57.352Z,37.83
2019-04-10T04:16:10.872Z,35.95
2019-04-10T04:17:24.216Z,35.98
2019-04-10T04:18:37.539Z,34.75
2019-04-10T04:19:52.612Z,36.83
2019-04-10T04:21:05.963Z,36.40
2019-04-10T04:22:19.013Z,41.15
2019-04-10T04:23:33.963Z,40.10
2019-04-10T04:24:48.212Z,40.92
2019-04-10T04:26:01.325Z,39.73
2019-04-10T04:27:15.243Z,37.98
2019-04-10T04:28:29.781Z,36.65
2019-04-10T04:29:44.132Z,29.10
2019-04-10T04:30:57.179Z,30.08
2019-04-10T04:32:10.213Z,31.85
2019-04-10T04:33:23.330Z,29.05
2019-04-10T04:34:40.096Z,28.77
2019-04-10T04:35:53.276Z,27.30
2019-04-10T04:37:08.192Z,29.40
2019-04-10T04:38:21.249Z,27.05
2019-04-10T04:39:35.059Z,28.52
2019-04-10T04:40:51.247Z,30.02
2019-04-10T04:42:05.059Z,30.02
2019-04-10T04:43:18.733Z,42.10
2019-04-10T04:44:33.427Z,54.33
2019-04-10T04:45:46.483Z,53.50
2019-04-10T04:46:59.944Z,56.13
2019-04-10T04:48:14.566Z,62.23
2019-04-10T04:49:28.420Z,55.03
2019-04-10T04:50:42.256Z,61.02
2019-04-10T04:51:56.002Z,54.60
2019-04-10T04:53:09.358Z,54.40
2019-04-10T04:54:23.298Z,60.40
2019-04-10T04:55:37.352Z,52.53
2019-04-10T04:56:50.533Z,57.03
2019-04-10T04:58:04.112Z,60.25
2019-04-10T04:59:18.348Z,53.35
2019-04-10T05:00:31.998Z,52.75
2019-04-10T05:01:45.089Z,55.25
2019-04-10T05:02:58.133Z,53.42
2019-04-10T05:04:11.181Z,54.83
2019-04-10T05:05:25.244Z,56.35
2019-04-10T05:06:39.479Z,56.90
2019-04-10T05:07:59.088Z,50.12
2019-04-10T05:09:07.377Z,53.28
2019-04-10T05:10:20.879Z,53.50
2019-04-10T05:11:34.252Z,56.88
2019-04-10T05:12:47.816Z,61.92
2019-04-10T05:14:01.418Z,53.30
2019-04-10T05:15:14.482Z,54.80
2019-04-10T05:16:27.541Z,51.58
2019-04-10T05:17:41.471Z,59.73
2019-04-10T05:18:54.607Z,54.85
2019-04-10T05:20:07.648Z,56.42
2019-04-10T05:21:21.340Z,62.13
2019-04-10T05:22:34.521Z,58.05
2019-04-10T05:23:47.570Z,54.40
2019-04-10T05:25:00.793Z,52.27
2019-04-10T05:26:14.410Z,57.70
2019-04-10T05:27:27.486Z,57.35
2019-04-10T05:28:40.554Z,56.58
2019-04-10T05:29:53.588Z,52.23
2019-04-10T05:31:06.834Z,54.63
2019-04-10T05:32:21.291Z,53.95
2019-04-10T05:33:36.747Z,54.67
2019-04-10T05:34:52.382Z,52.20
2019-04-10T05:36:05.504Z,51.33
2019-04-10T05:37:19.133Z,54.08
2019-04-10T05:38:33.314Z,53.00
2019-04-10T05:39:50.881Z,54.88
2019-04-10T05:41:02.751Z,58.78
2019-04-10T05:42:16.801Z,54.58
2019-04-10T05:43:31.350Z,56.40
2019-04-10T05:44:44.610Z,61.28
2019-04-10T05:45:57.616Z,53.55
2019-04-10T05:47:11.676Z,53.60
2019-04-10T05:48:25.438Z,56.08
2019-04-10T05:49:39.380Z,60.75
2019-04-10T05:50:57.629Z,57.15
2019-04-10T05:52:08.242Z,56.40
2019-04-10T05:53:22.549Z,64.82
2019-04-10T05:54:35.714Z,60.88
2019-04-10T05:55:49.361Z,57.73
2019-04-10T05:57:02.476Z,56.88
2019-04-10T05:58:15.604Z,56.28
2019-04-10T05:59:30.106Z,53.25
2019-04-10T06:00:43.168Z,56.60
2019-04-10T06:01:56.833Z,57.83
2019-04-10T06:03:09.901Z,64.12
2019-04-10T06:04:22.945Z,58.40
2019-04-10T06:05:36.368Z,59.77
2019-04-10T06:06:49.524Z,55.43
2019-04-10T06:08:02.895Z,53.85
2019-04-10T06:09:16.354Z,52.60
2019-04-10T06:10:30.138Z,48.98
2019-04-10T06:11:44.528Z,56.55
2019-04-10T06:12:58.462Z,56.53
2019-04-10T06:14:11.531Z,50.73
2019-04-10T06:15:27.258Z,52.25
2019-04-10T06:16:40.585Z,52.30
2019-04-10T06:17:54.535Z,51.30
2019-04-10T06:19:07.643Z,56.40
2019-04-10T06:20:20.941Z,53.45
2019-04-10T06:21:34.005Z,52.25
2019-04-10T06:22:47.360Z,52.45
2019-04-10T06:24:00.952Z,51.50
2019-04-10T06:25:16.152Z,50.67
2019-04-10T06:26:32.327Z,47.75
2019-04-10T06:27:45.777Z,50.25
2019-04-10T06:28:59.011Z,50.40
2019-04-10T06:30:12.203Z,48.10
2019-04-10T06:31:25.250Z,55.00
2019-04-10T06:32:38.307Z,52.60
2019-04-10T06:33:52.759Z,57.55
2019-04-10T06:35:05.927Z,51.20
2019-04-10T06:36:19.527Z,53.35
2019-04-10T06:37:32.673Z,49.75
2019-04-10T06:38:45.705Z,52.13
2019-04-10T06:40:07.569Z,52.53
2019-04-10T06:41:16.033Z,49.10
2019-04-10T06:42:28.507Z,53.02
2019-04-10T06:43:43.425Z,52.62
2019-04-10T06:44:56.518Z,56.42
2019-04-10T06:46:10.397Z,49.70
2019-04-10T06:47:24.387Z,55.55
2019-04-10T06:48:38.426Z,54.38
2019-04-10T06:49:52.556Z,52.00
2019-04-10T06:51:06.098Z,54.80
2019-04-10T06:52:20.641Z,54.00
2019-04-10T06:53:35.174Z,48.20
2019-04-10T06:54:49.026Z,50.45
2019-04-10T06:56:02.906Z,55.88
2019-04-10T06:57:16.970Z,54.45
2019-04-10T06:58:32.332Z,50.60
2019-04-10T06:59:46.097Z,53.45
2019-04-10T07:01:01.557Z,48.73
2019-04-10T07:02:21.990Z,49.75
2019-04-10T07:03:44.780Z,50.55
2019-04-10T07:04:49.881Z,51.25
2019-04-10T07:06:07.672Z,49.83
2019-04-10T07:07:18.133Z,49.90
2019-04-10T07:08:32.035Z,45.23
2019-04-10T07:09:45.423Z,50.75
2019-04-10T07:11:04.732Z,53.70
2019-04-10T07:12:14.302Z,53.87
2019-04-10T07:13:28.071Z,57.40
2019-04-10T07:14:46.282Z,50.80
2019-04-10T07:15:58.539Z,52.38
2019-04-10T07:17:14.413Z,52.83
2019-04-10T07:18:28.422Z,54.35
2019-04-10T07:19:44.014Z,46.70
2019-04-10T07:21:00.735Z,51.33
2019-04-10T07:22:14.166Z,48.02
2019-04-10T07:23:28.865Z,49.70
2019-04-10T07:24:43.996Z,51.02
2019-04-10T07:25:56.397Z,51.00
2019-04-10T07:27:09.877Z,50.67
2019-04-10T07:28:25.676Z,47.58
2019-04-10T07:29:38.335Z,57.93
2019-04-10T07:30:51.991Z,51.90
2019-04-10T07:32:09.643Z,50.12
2019-04-10T07:33:21.067Z,50.15
2019-04-10T07:34:34.385Z,55.78
2019-04-10T07:35:47.418Z,52.58
2019-04-10T07:37:00.453Z,55.20
2019-04-10T07:38:18.377Z,50.83
2019-04-10T07:39:33.699Z,48.33
2019-04-10T07:40:47.132Z,48.30
2019-04-10T07:42:02.093Z,51.13
2019-04-10T07:43:15.303Z,52.98
2019-04-10T07:44:30.513Z,49.90
2019-04-10T07:45:43.805Z,54.00
2019-04-10T07:46:59.265Z,51.28
2019-04-10T07:48:13.077Z,55.23
2019-04-10T07:49:28.506Z,58.38
2019-04-10T07:50:42.884Z,58.13
2019-04-10T07:51:56.524Z,49.38
2019-04-10T07:53:10.473Z,47.78
2019-04-10T07:54:24.479Z,52.40
2019-04-10T07:55:37.658Z,51.37
2019-04-10T07:56:52.054Z,53.13
2019-04-10T07:58:06.803Z,47.48
2019-04-10T07:59:22.517Z,49.38
2019-04-10T08:00:36.655Z,49.42
2019-04-10T08:01:49.800Z,49.98
2019-04-10T08:03:04.086Z,48.45
2019-04-10T08:04:18.155Z,58.78
2019-04-10T08:05:31.376Z,51.05
2019-04-10T08:06:46.761Z,47.62
2019-04-10T08:08:01.052Z,50.33
2019-04-10T08:09:14.731Z,47.20
2019-04-10T08:10:29.184Z,50.28
2019-04-10T08:11:44.828Z,46.10
2019-04-10T08:12:58.368Z,48.13
2019-04-10T08:14:12.664Z,47.90
2019-04-10T08:15:25.789Z,48.30
2019-04-10T08:16:39.391Z,50.05
2019-04-10T08:17:52.588Z,44.42
2019-04-10T08:19:05.639Z,47.93
2019-04-10T08:20:19.142Z,50.30
2019-04-10T08:21:32.196Z,53.10
2019-04-10T08:22:45.253Z,53.63
2019-04-10T08:23:58.374Z,50.28
2019-04-10T08:25:11.422Z,50.55
2019-04-10T08:26:25.512Z,49.90
2019-04-10T08:27:38.609Z,52.03
2019-04-10T08:28:51.771Z,50.70
2019-04-10T08:30:05.406Z,47.60
2019-04-10T08:31:19.146Z,48.42
2019-04-10T08:32:32.281Z,52.27
2019-04-10T08:33:46.966Z,51.60
2019-04-10T08:35:00.375Z,56.08
2019-04-10T08:36:13.442Z,54.93
2019-04-10T08:37:26.525Z,55.35
2019-04-10T08:38:40.089Z,56.08
2019-04-10T08:39:53.249Z,54.15
2019-04-10T08:41:07.264Z,52.35
2019-04-10T08:42:20.318Z,58.68
2019-04-10T08:43:34.118Z,54.70
2019-04-10T08:44:47.225Z,53.78
2019-04-10T08:46:01.812Z,54.00
2019-04-10T08:47:15.261Z,54.93
2019-04-10T08:48:30.129Z,55.98
2019-04-10T08:49:45.308Z,57.50
2019-04-10T08:50:58.902Z,60.85
2019-04-10T08:52:12.275Z,56.28
2019-04-10T08:53:27.265Z,57.45
2019-04-10T08:54:40.958Z,56.90
2019-04-10T08:55:54.583Z,61.77
2019-04-10T08:57:07.730Z,62.35
2019-04-10T08:58:22.975Z,65.03
2019-04-10T08:59:38.271Z,58.42
2019-04-10T09:00:52.728Z,61.77
2019-04-10T09:02:06.152Z,59.45
2019-04-10T09:03:19.211Z,54.75
2019-04-10T09:04:32.251Z,55.63
2019-04-10T09:05:45.357Z,54.88
2019-04-10T09:07:01.274Z,53.80
2019-04-10T09:08:13.185Z,57.95
2019-04-10T09:09:26.224Z,62.67
2019-04-10T09:10:40.603Z,66.85
2019-04-10T09:11:53.748Z,59.50
2019-04-10T09:13:06.793Z,65.37
2019-04-10T09:14:19.850Z,56.58
2019-04-10T09:15:34.024Z,56.48
2019-04-10T09:16:47.230Z,54.63
2019-04-10T09:18:00.316Z,60.85
2019-04-10T09:19:13.937Z,54.00
2019-04-10T09:20:27.085Z,60.17
2019-04-10T09:21:40.139Z,55.45
2019-04-10T09:23:13.450Z,57.33
2019-04-10T09:24:10.270Z,59.58
2019-04-10T09:25:25.510Z,53.15
2019-04-10T09:26:38.548Z,54.23
2019-04-10T09:27:51.813Z,54.83
2019-04-10T09:29:06.716Z,56.60
2019-04-10T09:30:20.810Z,55.25
2019-04-10T09:31:33.849Z,55.20
2019-04-10T09:32:48.571Z,51.60
2019-04-10T09:34:01.684Z,53.90
2019-04-10T09:35:14.743Z,52.25
2019-04-10T09:36:29.152Z,52.90
2019-04-10T09:37:42.229Z,52.85
2019-04-10T09:38:55.311Z,53.68
2019-04-10T09:40:08.864Z,54.40
2019-04-10T09:41:22.239Z,55.17
2019-04-10T09:42:36.437Z,54.93
2019-04-10T09:43:49.807Z,53.25
2019-04-10T09:45:02.886Z,58.78
2019-04-10T09:46:18.211Z,55.92
2019-04-10T09:47:30.705Z,56.25
2019-04-10T09:48:47.641Z,53.83
2019-04-10T09:50:02.345Z,55.35
2019-04-10T09:51:17.948Z,54.73
2019-04-10T09:52:30.246Z,50.88
2019-04-10T09:53:44.034Z,56.48
2019-04-10T09:54:57.544Z,58.83
2019-04-10T09:56:11.703Z,58.13
2019-04-10T09:57:24.842Z,58.87
2019-04-10T09:58:37.894Z,53.55
2019-04-10T09:59:51.089Z,58.13
2019-04-10T10:01:05.782Z,56.13
2019-04-10T10:02:19.646Z,60.10
2019-04-10T10:03:34.638Z,63.40
2019-04-10T10:04:48.098Z,60.65
2019-04-10T10:06:01.796Z,59.77
2019-04-10T10:07:14.943Z,58.23
2019-04-10T10:08:28.882Z,53.90
2019-04-10T10:09:43.030Z,52.38
2019-04-10T10:10:56.257Z,50.98
2019-04-10T10:12:09.869Z,52.62
2019-04-10T10:13:23.548Z,53.95
2019-04-10T10:14:37.946Z,58.55
2019-04-10T10:15:51.526Z,54.95
2019-04-10T10:17:04.661Z,54.98
2019-04-10T10:18:17.705Z,60.63
2019-04-10T10:19:30.747Z,53.85
2019-04-10T10:20:44.041Z,55.35
2019-04-10T10:21:57.136Z,61.42
2019-04-10T10:23:10.177Z,56.10
2019-04-10T10:24:23.229Z,50.98
2019-04-10T10:25:37.410Z,56.08
2019-04-10T10:26:51.420Z,57.23
2019-04-10T10:28:04.984Z,54.58
2019-04-10T10:29:18.057Z,57.98
2019-04-10T10:30:31.521Z,53.92
2019-04-10T10:31:44.634Z,57.43
2019-04-10T10:32:57.689Z,57.73
2019-04-10T10:34:12.334Z,56.95
2019-04-10T10:35:25.441Z,56.92
2019-04-10T10:36:43.051Z,55.80
2019-04-10T10:37:54.656Z,58.48
2019-04-10T10:39:12.779Z,60.03
2019-04-10T10:40:25.620Z,56.20
2019-04-10T10:41:38.788Z,59.40
2019-04-10T10:42:51.947Z,57.53
2019-04-10T10:44:05.047Z,60.08
2019-04-10T10:45:18.618Z,63.65
2019-04-10T10:46:31.821Z,61.90
2019-04-10T10:47:44.894Z,61.70
2019-04-10T10:48:57.975Z,56.37
2019-04-10T10:50:11.063Z,63.25
2019-04-10T10:51:24.106Z,56.68
2019-04-10T10:52:37.156Z,54.08
2019-04-10T10:53:50.437Z,59.93
2019-04-10T10:55:05.384Z,65.12
2019-04-10T10:56:18.757Z,55.95
2019-04-10T10:57:31.807Z,60.85
2019-04-10T10:58:45.825Z,58.98
2019-04-10T10:59:59.854Z,58.65
2019-04-10T11:01:13.709Z,65.28
2019-04-10T11:02:27.713Z,57.50
2019-04-10T11:03:40.817Z,62.23
2019-04-10T11:04:54.134Z,61.30
2019-04-10T11:06:08.754Z,59.70
2019-04-10T11:07:22.737Z,62.88
2019-04-10T11:08:37.380Z,64.92
2019-04-10T11:09:50.438Z,60.50
2019-04-10T11:11:04.186Z,60.15
2019-04-10T11:12:17.723Z,57.08
2019-04-10T11:13:30.903Z,57.65
2019-04-10T11:14:44.009Z,55.50
2019-04-10T11:15:57.073Z,57.73
2019-04-10T11:17:10.127Z,59.80
2019-04-10T11:18:24.643Z,55.52
2019-04-10T11:19:37.884Z,61.37
2019-04-10T11:20:52.230Z,54.23
2019-04-10T11:22:05.472Z,58.20
2019-04-10T11:23:19.471Z,58.95
2019-04-10T11:24:33.266Z,64.77
2019-04-10T11:25:46.505Z,61.28
2019-04-10T11:27:00.055Z,63.15
2019-04-10T11:28:16.138Z,57.40
2019-04-10T11:29:28.748Z,59.60
2019-04-10T11:30:42.563Z,56.33
2019-04-10T11:31:55.735Z,60.73
2019-04-10T11:33:08.814Z,60.85
2019-04-10T11:34:22.635Z,63.05
2019-04-10T11:35:37.266Z,56.70
2019-04-10T11:37:11.256Z,58.80
2019-04-10T11:38:06.109Z,60.33
2019-04-10T11:39:23.374Z,62.05
2019-04-10T11:40:36.588Z,60.23
2019-04-10T11:41:50.463Z,58.40
2019-04-10T11:43:05.116Z,58.90
2019-04-10T11:44:20.366Z,62.40
2019-04-10T11:45:41.304Z,56.00
2019-04-10T11:46:49.427Z,56.77
2019-04-10T11:48:02.786Z,61.55
2019-04-10T11:49:17.786Z,60.33
2019-04-10T11:50:32.197Z,61.88
2019-04-10T11:51:48.273Z,57.38
2019-04-10T11:53:02.166Z,59.75
2019-04-10T11:54:18.020Z,57.65
2019-04-10T11:55:35.402Z,61.92
2019-04-10T11:56:48.698Z,58.02
2019-04-10T11:58:02.971Z,59.63
2019-04-10T11:59:18.486Z,59.35
2019-04-10T12:00:49.194Z,62.55
2019-04-10T12:02:02.622Z,57.08
2019-04-10T12:03:12.935Z,61.75
2019-04-10T12:04:29.569Z,60.10
2019-04-10T12:05:42.251Z,55.78
2019-04-10T12:07:49.199Z,62.13
2019-04-10T12:08:55.289Z,64.47
2019-04-10T12:12:17.399Z,63.20
2019-04-10T12:13:32.437Z,63.73
2019-04-10T12:14:45.876Z,61.95
2019-04-10T12:15:58.991Z,58.60
2019-04-10T12:17:12.071Z,59.40
2019-04-10T12:18:25.117Z,61.30
2019-04-10T12:19:38.372Z,58.58
2019-04-10T12:20:51.571Z,58.20
2019-04-10T12:22:05.418Z,56.40
2019-04-10T12:23:18.860Z,66.00
2019-04-10T12:24:32.238Z,63.35
2019-04-10T12:25:45.375Z,57.70
2019-04-10T12:26:58.416Z,53.23
2019-04-10T12:28:11.712Z,56.37
2019-04-10T12:29:24.816Z,58.17
2019-04-10T12:30:37.853Z,60.10
2019-04-10T12:31:52.271Z,56.15
2019-04-10T12:33:05.481Z,56.88
2019-04-10T12:34:18.763Z,56.58
2019-04-10T12:35:32.033Z,61.28
2019-04-10T12:36:45.072Z,55.75
2019-04-10T12:38:02.855Z,60.58
2019-04-10T12:39:12.888Z,58.17
2019-04-10T12:40:26.585Z,59.88
2019-04-10T12:41:43.588Z,58.30
2019-04-10T12:42:56.718Z,57.50
2019-04-10T12:44:09.773Z,57.40
2019-04-10T12:45:24.707Z,61.13
2019-04-10T12:46:37.767Z,66.75
2019-04-10T12:47:50.822Z,64.20
2019-04-10T12:49:03.881Z,58.17
2019-04-10T12:50:18.176Z,62.50
2019-04-10T12:51:31.984Z,58.58
2019-04-10T12:52:47.835Z,54.45
2019-04-10T12:54:01.153Z,54.98
2019-04-10T12:55:14.515Z,54.10
2019-04-10T12:56:32.473Z,53.13
2019-04-10T12:57:45.574Z,56.70
2019-04-10T12:58:59.311Z,55.33
2019-04-10T13:00:14.108Z,54.70
2019-04-10T13:01:27.153Z,57.45
2019-04-10T13:02:40.760Z,51.63
2019-04-10T13:03:53.834Z,49.45
2019-04-10T13:05:07.246Z,57.20
2019-04-10T13:06:20.325Z,57.70
2019-04-10T13:07:33.824Z,52.88
2019-04-10T13:08:59.087Z,62.80
2019-04-10T13:10:02.550Z,53.13
2019-04-10T13:11:16.337Z,56.55
2019-04-10T13:12:29.400Z,58.13
2019-04-10T13:13:42.489Z,56.02
2019-04-10T13:14:55.614Z,57.90
2019-04-10T13:16:09.824Z,54.67
2019-04-10T13:17:23.017Z,52.88
2019-04-10T13:18:36.436Z,55.10
2019-04-10T13:19:49.504Z,54.23
2019-04-10T13:21:02.545Z,51.02
2019-04-10T13:22:15.933Z,50.75
2019-04-10T13:23:29.025Z,46.90
2019-04-10T13:24:42.077Z,49.27
2019-04-10T13:25:58.116Z,51.35
2019-04-10T13:27:10.417Z,51.08
2019-04-10T13:28:23.509Z,56.50
2019-04-10T13:29:38.502Z,51.00
2019-04-10T13:30:54.876Z,54.35
2019-04-10T13:32:07.408Z,51.02
2019-04-10T13:33:20.696Z,49.67
2019-04-10T13:34:33.743Z,53.17
2019-04-10T13:35:46.819Z,51.58
2019-04-10T13:37:01.989Z,52.60
2019-04-10T13:38:23.193Z,56.02
2019-04-10T13:39:29.397Z,52.55
2019-04-10T13:40:42.448Z,54.20
2019-04-10T13:41:55.526Z,52.35
2019-04-10T13:43:09.547Z,55.67
2019-04-10T13:44:22.661Z,53.13
2019-04-10T13:45:36.026Z,54.13
2019-04-10T13:46:49.119Z,55.58
2019-04-10T13:48:02.229Z,56.55
2019-04-10T13:49:15.277Z,52.62
2019-04-10T13:50:28.322Z,51.85
2019-04-10T13:51:41.474Z,58.30
2019-04-10T13:52:56.157Z,56.23
2019-04-10T13:54:10.327Z,58.40
2019-04-10T13:55:24.288Z,54.27
2019-04-10T13:56:37.357Z,54.58
2019-04-10T13:57:50.822Z,56.53
2019-04-10T13:59:04.740Z,56.73
2019-04-10T14:00:25.864Z,58.23
2019-04-10T14:01:39.857Z,57.00
2019-04-10T14:02:54.092Z,61.18
2019-04-10T14:04:07.232Z,54.08
2019-04-10T14:05:20.660Z,51.75
2019-04-10T14:06:34.020Z,56.77
2019-04-10T14:07:47.067Z,54.80
2019-04-10T14:09:17.842Z,54.10
2019-04-10T14:10:15.097Z,53.87
2019-04-10T14:11:29.140Z,53.45
2019-04-10T14:12:43.008Z,55.55
2019-04-10T14:13:56.079Z,55.80
2019-04-10T14:15:10.825Z,53.98
2019-04-10T14:16:24.460Z,57.48
2019-04-10T14:17:37.699Z,58.10
2019-04-10T14:18:51.193Z,58.68
2019-04-10T14:20:05.518Z,58.17
2019-04-10T14:21:18.853Z,54.38
2019-04-10T14:22:31.984Z,57.23
2019-04-10T14:23:45.259Z,59.40
2019-04-10T14:24:58.973Z,58.30
2019-04-10T14:26:39.913Z,60.38
2019-04-10T14:27:43.242Z,59.10
2019-04-10T14:28:56.295Z,54.60
2019-04-10T14:30:11.341Z,60.50
2019-04-10T14:31:28.842Z,54.65
2019-04-10T14:32:41.917Z,57.58
2019-04-10T14:33:54.958Z,56.95
2019-04-10T14:35:09.870Z,60.50
2019-04-10T14:36:24.242Z,57.60
2019-04-10T14:37:37.886Z,61.05
2019-04-10T14:38:53.515Z,57.40
2019-04-10T14:40:08.064Z,60.12
2019-04-10T14:41:28.240Z,61.10
2019-04-10T14:42:42.378Z,59.48
2019-04-10T14:43:55.703Z,56.08
2019-04-10T14:45:09.077Z,60.67
2019-04-10T14:46:24.221Z,61.98
2019-04-10T14:47:37.329Z,56.73
2019-04-10T14:48:50.623Z,59.08
2019-04-10T14:50:05.289Z,64.05
2019-04-10T14:51:18.481Z,57.85
2019-04-10T14:52:31.525Z,59.48
2019-04-10T14:53:44.574Z,58.33
2019-04-10T14:54:57.617Z,58.90
2019-04-10T14:56:10.674Z,55.23
2019-04-10T14:57:23.713Z,58.35
2019-04-10T14:58:36.990Z,57.25
2019-04-10T14:59:50.629Z,62.88
2019-04-10T15:01:06.924Z,58.87
2019-04-10T15:02:19.670Z,65.08
2019-04-10T15:03:32.908Z,59.65
2019-04-10T15:04:45.941Z,61.75
2019-04-10T15:06:01.068Z,55.88
2019-04-10T15:07:14.366Z,57.98
2019-04-10T15:08:27.949Z,59.35
2019-04-10T15:09:41.112Z,61.05
2019-04-10T15:10:54.528Z,65.12
2019-04-10T15:12:09.912Z,65.78
2019-04-10T15:13:23.120Z,60.75
2019-04-10T15:14:37.515Z,60.35
2019-04-10T15:15:50.584Z,66.60
2019-04-10T15:17:04.806Z,62.73
2019-04-10T15:18:18.504Z,66.95
2019-04-10T15:19:32.320Z,62.23
2019-04-10T15:20:45.466Z,61.35
2019-04-10T15:21:59.112Z,60.58
2019-04-10T15:23:12.232Z,59.13
2019-04-10T15:24:25.814Z,61.65
2019-04-10T15:25:39.528Z,63.42
2019-04-10T15:26:53.048Z,59.58
2019-04-10T15:28:07.081Z,63.90
2019-04-10T15:29:20.422Z,55.00
2019-04-10T15:30:36.872Z,60.15
2019-04-10T15:31:50.489Z,61.80
2019-04-10T15:33:04.513Z,61.28
2019-04-10T15:34:18.295Z,59.80
2019-04-10T15:35:31.399Z,66.20
2019-04-10T15:36:45.927Z,59.05
2019-04-10T15:37:59.916Z,63.55
2019-04-10T15:39:13.179Z,70.95
2019-04-10T15:40:28.837Z,59.20
2019-04-10T15:41:42.117Z,64.40
2019-04-10T15:42:55.192Z,60.35
2019-04-10T15:44:09.899Z,60.90
2019-04-10T15:45:23.870Z,65.52
2019-04-10T15:46:37.212Z,60.98
2019-04-10T15:47:54.242Z,63.08
2019-04-10T15:49:05.089Z,65.92
2019-04-10T15:50:18.260Z,62.33
2019-04-10T15:51:32.132Z,65.17
2019-04-10T15:52:45.281Z,64.65
2019-04-10T15:53:59.119Z,63.63
2019-04-10T15:55:13.239Z,64.00